sensor_id;sensor_type;location;lat;lon;timestamp;P1;durP1;ratioP1;P2;durP2;ratioP2
56927;SDS011;60850;52.502;13.426;2022-09-09T00:02:13;14.23;;;9.40;;
56927;SDS011;60850;52.502;13.426;2022-09-09T00:04:45;16.48;;;9.57;;
56927;SDS011;60850;52.502;13.426;2022-09-09T00:07:23;15.48;;;9.57;;
56927;SDS011;60850;52.502;13.426;2022-09-09T00:10:00;16.67;;;9.77;;
56927;SDS011;60850;52.502;13.426;2022-09-09T00:12:36;15.40;;;9.27;;
56927;SDS011;60850;52.502;13.426;2022-09-09T00:15:11;16.58;;;10.32;;
56927;SDS011;60850;52.502;13.426;2022-09-09T00:17:41;13.68;;;9.38;;
56927;SDS011;60850;52.502;13.426;2022-09-09T00:20:16;14.52;;;9.98;;
56927;SDS011;60850;52.502;13.426;2022-09-09T00:22:53;17.90;;;9.80;;
56927;SDS011;60850;52.502;13.426;2022-09-09T00:25:29;14.43;;;9.57;;
56927;SDS011;60850;52.502;13.426;2022-09-09T00:28:04;15.77;;;10.10;;
56927;SDS011;60850;52.502;13.426;2022-09-09T00:30:40;13.30;;;9.38;;
56927;SDS011;60850;52.502;13.426;2022-09-09T00:33:10;18.05;;;9.90;;
56927;SDS011;60850;52.502;13.426;2022-09-09T00:35:41;16.15;;;10.07;;
56927;SDS011;60850;52.502;13.426;2022-09-09T00:38:12;15.75;;;10.02;;
56927;SDS011;60850;52.502;13.426;2022-09-09T00:40:45;14.23;;;9.50;;
56927;SDS011;60850;52.502;13.426;2022-09-09T00:43:20;15.52;;;10.50;;
56927;SDS011;60850;52.502;13.426;2022-09-09T00:45:57;19.00;;;11.40;;
56927;SDS011;60850;52.502;13.426;2022-09-09T00:48:34;18.95;;;11.27;;
56927;SDS011;60850;52.502;13.426;2022-09-09T00:51:09;21.88;;;12.93;;
56927;SDS011;60850;52.502;13.426;2022-09-09T00:56:25;17.80;;;10.93;;
56927;SDS011;60850;52.502;13.426;2022-09-09T00:58:55;15.70;;;9.25;;
56927;SDS011;60850;52.502;13.426;2022-09-09T01:01:32;15.57;;;9.88;;
56927;SDS011;60850;52.502;13.426;2022-09-09T01:04:01;14.38;;;9.85;;
56927;SDS011;60850;52.502;13.426;2022-09-09T01:06:33;15.68;;;10.55;;
56927;SDS011;60850;52.502;13.426;2022-09-09T01:09:10;20.15;;;11.07;;
56927;SDS011;60850;52.502;13.426;2022-09-09T01:11:51;34.65;;;16.38;;
56927;SDS011;60850;52.502;13.426;2022-09-09T01:14:30;19.65;;;11.93;;
56927;SDS011;60850;52.502;13.426;2022-09-09T01:17:08;19.98;;;11.45;;
56927;SDS011;60850;52.502;13.426;2022-09-09T01:19:45;19.63;;;11.32;;
56927;SDS011;60850;52.502;13.426;2022-09-09T01:22:22;22.58;;;11.77;;
56927;SDS011;60850;52.502;13.426;2022-09-09T01:25:07;21.17;;;11.30;;
56927;SDS011;60850;52.502;13.426;2022-09-09T01:27:46;25.02;;;13.73;;
56927;SDS011;60850;52.502;13.426;2022-09-09T01:30:16;24.77;;;13.85;;
56927;SDS011;60850;52.502;13.426;2022-09-09T01:32:45;24.77;;;11.48;;
56927;SDS011;60850;52.502;13.426;2022-09-09T01:35:15;19.55;;;11.45;;
56927;SDS011;60850;52.502;13.426;2022-09-09T01:37:54;23.15;;;12.00;;
56927;SDS011;60850;52.502;13.426;2022-09-09T01:40:21;17.65;;;9.77;;
56927;SDS011;60850;52.502;13.426;2022-09-09T01:42:50;18.83;;;10.07;;
56927;SDS011;60850;52.502;13.426;2022-09-09T01:45:18;14.70;;;8.30;;
56927;SDS011;60850;52.502;13.426;2022-09-09T01:47:45;14.35;;;8.02;;
56927;SDS011;60850;52.502;13.426;2022-09-09T01:50:13;12.00;;;7.93;;
56927;SDS011;60850;52.502;13.426;2022-09-09T01:52:43;14.90;;;8.02;;
56927;SDS011;60850;52.502;13.426;2022-09-09T01:55:12;13.68;;;7.97;;
56927;SDS011;60850;52.502;13.426;2022-09-09T01:57:41;11.05;;;7.45;;
56927;SDS011;60850;52.502;13.426;2022-09-09T02:00:21;11.90;;;7.47;;
56927;SDS011;60850;52.502;13.426;2022-09-09T02:02:49;13.73;;;7.75;;
56927;SDS011;60850;52.502;13.426;2022-09-09T02:05:25;12.43;;;7.50;;
56927;SDS011;60850;52.502;13.426;2022-09-09T02:08:03;11.77;;;8.10;;
56927;SDS011;60850;52.502;13.426;2022-09-09T02:10:45;13.10;;;8.48;;
56927;SDS011;60850;52.502;13.426;2022-09-09T02:13:19;12.77;;;8.37;;
56927;SDS011;60850;52.502;13.426;2022-09-09T02:15:49;13.35;;;8.07;;
56927;SDS011;60850;52.502;13.426;2022-09-09T02:18:23;13.32;;;8.20;;
56927;SDS011;60850;52.502;13.426;2022-09-09T02:20:53;13.05;;;8.07;;
56927;SDS011;60850;52.502;13.426;2022-09-09T02:23:20;13.05;;;8.10;;
56927;SDS011;60850;52.502;13.426;2022-09-09T02:25:47;14.02;;;8.20;;
56927;SDS011;60850;52.502;13.426;2022-09-09T02:28:19;11.82;;;7.93;;
56927;SDS011;60850;52.502;13.426;2022-09-09T02:30:49;13.77;;;7.68;;
56927;SDS011;60850;52.502;13.426;2022-09-09T02:33:21;13.70;;;7.90;;
56927;SDS011;60850;52.502;13.426;2022-09-09T02:35:51;12.05;;;7.63;;
56927;SDS011;60850;52.502;13.426;2022-09-09T02:38:19;13.13;;;7.90;;
56927;SDS011;60850;52.502;13.426;2022-09-09T02:40:50;12.90;;;7.28;;
56927;SDS011;60850;52.502;13.426;2022-09-09T02:43:17;12.18;;;7.75;;
56927;SDS011;60850;52.502;13.426;2022-09-09T02:45:49;12.40;;;7.70;;
56927;SDS011;60850;52.502;13.426;2022-09-09T02:48:25;12.10;;;7.72;;
56927;SDS011;60850;52.502;13.426;2022-09-09T02:51:01;11.63;;;7.47;;
56927;SDS011;60850;52.502;13.426;2022-09-09T02:53:38;12.48;;;7.68;;
56927;SDS011;60850;52.502;13.426;2022-09-09T02:56:12;11.40;;;7.25;;
56927;SDS011;60850;52.502;13.426;2022-09-09T02:58:42;11.85;;;7.35;;
56927;SDS011;60850;52.502;13.426;2022-09-09T03:01:11;15.18;;;7.93;;
56927;SDS011;60850;52.502;13.426;2022-09-09T03:03:39;11.63;;;7.30;;
56927;SDS011;60850;52.502;13.426;2022-09-09T03:06:07;11.07;;;7.13;;
56927;SDS011;60850;52.502;13.426;2022-09-09T03:08:35;12.45;;;7.53;;
56927;SDS011;60850;52.502;13.426;2022-09-09T03:11:02;12.30;;;6.95;;
56927;SDS011;60850;52.502;13.426;2022-09-09T03:13:29;11.88;;;7.07;;
56927;SDS011;60850;52.502;13.426;2022-09-09T03:15:56;10.55;;;7.18;;
56927;SDS011;60850;52.502;13.426;2022-09-09T03:18:25;10.95;;;7.38;;
56927;SDS011;60850;52.502;13.426;2022-09-09T03:20:53;10.13;;;6.85;;
56927;SDS011;60850;52.502;13.426;2022-09-09T03:23:20;11.75;;;7.28;;
56927;SDS011;60850;52.502;13.426;2022-09-09T03:25:48;11.38;;;7.35;;
56927;SDS011;60850;52.502;13.426;2022-09-09T03:28:16;11.63;;;7.38;;
56927;SDS011;60850;52.502;13.426;2022-09-09T03:30:43;12.85;;;7.75;;
56927;SDS011;60850;52.502;13.426;2022-09-09T03:33:10;12.43;;;6.53;;
56927;SDS011;60850;52.502;13.426;2022-09-09T03:35:44;13.23;;;7.45;;
56927;SDS011;60850;52.502;13.426;2022-09-09T03:38:14;9.30;;;6.28;;
56927;SDS011;60850;52.502;13.426;2022-09-09T03:40:47;10.30;;;7.25;;
56927;SDS011;60850;52.502;13.426;2022-09-09T03:43:15;11.60;;;7.07;;
56927;SDS011;60850;52.502;13.426;2022-09-09T03:45:44;13.05;;;7.18;;
56927;SDS011;60850;52.502;13.426;2022-09-09T03:48:12;10.15;;;6.80;;
56927;SDS011;60850;52.502;13.426;2022-09-09T03:50:45;11.15;;;6.63;;
56927;SDS011;60850;52.502;13.426;2022-09-09T03:53:12;11.75;;;6.78;;
56927;SDS011;60850;52.502;13.426;2022-09-09T03:55:43;12.15;;;7.95;;
56927;SDS011;60850;52.502;13.426;2022-09-09T03:58:11;10.65;;;7.32;;
56927;SDS011;60850;52.502;13.426;2022-09-09T04:00:39;11.40;;;7.53;;
56927;SDS011;60850;52.502;13.426;2022-09-09T04:03:07;11.13;;;6.80;;
56927;SDS011;60850;52.502;13.426;2022-09-09T04:05:34;10.50;;;6.40;;
56927;SDS011;60850;52.502;13.426;2022-09-09T04:08:06;10.77;;;7.30;;
56927;SDS011;60850;52.502;13.426;2022-09-09T04:10:33;10.32;;;6.85;;
56927;SDS011;60850;52.502;13.426;2022-09-09T04:13:01;10.85;;;7.15;;
56927;SDS011;60850;52.502;13.426;2022-09-09T04:15:29;12.80;;;7.60;;
56927;SDS011;60850;52.502;13.426;2022-09-09T04:17:56;9.95;;;6.63;;
56927;SDS011;60850;52.502;13.426;2022-09-09T04:20:23;11.85;;;6.38;;
56927;SDS011;60850;52.502;13.426;2022-09-09T04:22:50;10.65;;;7.10;;
56927;SDS011;60850;52.502;13.426;2022-09-09T04:25:18;11.93;;;7.22;;
56927;SDS011;60850;52.502;13.426;2022-09-09T04:27:45;10.82;;;7.18;;
56927;SDS011;60850;52.502;13.426;2022-09-09T04:30:13;11.60;;;7.28;;
56927;SDS011;60850;52.502;13.426;2022-09-09T04:32:39;11.57;;;7.43;;
56927;SDS011;60850;52.502;13.426;2022-09-09T04:35:07;12.25;;;7.15;;
56927;SDS011;60850;52.502;13.426;2022-09-09T04:37:34;11.23;;;7.13;;
56927;SDS011;60850;52.502;13.426;2022-09-09T04:40:01;10.27;;;6.63;;
56927;SDS011;60850;52.502;13.426;2022-09-09T04:42:29;12.23;;;7.30;;
56927;SDS011;60850;52.502;13.426;2022-09-09T04:44:56;10.05;;;7.43;;
56927;SDS011;60850;52.502;13.426;2022-09-09T04:47:23;10.88;;;7.25;;
56927;SDS011;60850;52.502;13.426;2022-09-09T04:49:50;12.57;;;7.10;;
56927;SDS011;60850;52.502;13.426;2022-09-09T04:52:19;10.52;;;6.80;;
56927;SDS011;60850;52.502;13.426;2022-09-09T04:54:46;11.15;;;7.25;;
56927;SDS011;60850;52.502;13.426;2022-09-09T04:57:13;11.32;;;7.55;;
56927;SDS011;60850;52.502;13.426;2022-09-09T04:59:42;10.38;;;7.10;;
56927;SDS011;60850;52.502;13.426;2022-09-09T05:02:11;11.98;;;6.45;;
56927;SDS011;60850;52.502;13.426;2022-09-09T05:04:38;10.65;;;6.90;;
56927;SDS011;60850;52.502;13.426;2022-09-09T05:07:06;10.15;;;7.00;;
56927;SDS011;60850;52.502;13.426;2022-09-09T05:09:33;9.82;;;6.28;;
56927;SDS011;60850;52.502;13.426;2022-09-09T05:12:00;9.90;;;6.47;;
56927;SDS011;60850;52.502;13.426;2022-09-09T05:14:28;10.23;;;6.20;;
56927;SDS011;60850;52.502;13.426;2022-09-09T05:16:57;9.88;;;6.50;;
56927;SDS011;60850;52.502;13.426;2022-09-09T05:19:24;12.07;;;6.32;;
56927;SDS011;60850;52.502;13.426;2022-09-09T05:21:51;9.30;;;5.75;;
56927;SDS011;60850;52.502;13.426;2022-09-09T05:24:18;12.15;;;5.82;;
56927;SDS011;60850;52.502;13.426;2022-09-09T05:26:45;7.15;;;5.15;;
56927;SDS011;60850;52.502;13.426;2022-09-09T05:29:13;8.73;;;5.20;;
56927;SDS011;60850;52.502;13.426;2022-09-09T05:31:42;9.98;;;5.10;;
56927;SDS011;60850;52.502;13.426;2022-09-09T05:34:10;7.55;;;5.05;;
56927;SDS011;60850;52.502;13.426;2022-09-09T05:36:37;7.30;;;5.13;;
56927;SDS011;60850;52.502;13.426;2022-09-09T05:39:04;8.55;;;5.15;;
56927;SDS011;60850;52.502;13.426;2022-09-09T05:41:31;6.70;;;5.13;;
56927;SDS011;60850;52.502;13.426;2022-09-09T05:43:58;7.18;;;5.03;;
56927;SDS011;60850;52.502;13.426;2022-09-09T05:46:26;5.20;;;4.15;;
56927;SDS011;60850;52.502;13.426;2022-09-09T05:48:53;6.07;;;4.45;;
56927;SDS011;60850;52.502;13.426;2022-09-09T05:51:22;7.85;;;4.75;;
56927;SDS011;60850;52.502;13.426;2022-09-09T05:53:50;10.80;;;4.57;;
56927;SDS011;60850;52.502;13.426;2022-09-09T05:56:18;7.43;;;4.40;;
56927;SDS011;60850;52.502;13.426;2022-09-09T05:58:47;8.57;;;4.47;;
56927;SDS011;60850;52.502;13.426;2022-09-09T06:01:16;5.05;;;3.85;;
56927;SDS011;60850;52.502;13.426;2022-09-09T06:03:44;7.35;;;3.60;;
56927;SDS011;60850;52.502;13.426;2022-09-09T06:06:13;7.25;;;3.80;;
56927;SDS011;60850;52.502;13.426;2022-09-09T06:08:44;5.03;;;3.13;;
56927;SDS011;60850;52.502;13.426;2022-09-09T06:11:12;4.72;;;2.95;;
56927;SDS011;60850;52.502;13.426;2022-09-09T06:13:41;5.00;;;3.20;;
56927;SDS011;60850;52.502;13.426;2022-09-09T06:16:08;6.30;;;2.92;;
56927;SDS011;60850;52.502;13.426;2022-09-09T06:18:36;5.15;;;2.72;;
56927;SDS011;60850;52.502;13.426;2022-09-09T06:21:04;4.85;;;3.08;;
56927;SDS011;60850;52.502;13.426;2022-09-09T06:23:33;7.82;;;3.47;;
56927;SDS011;60850;52.502;13.426;2022-09-09T06:26:03;6.63;;;3.08;;
56927;SDS011;60850;52.502;13.426;2022-09-09T06:28:32;6.32;;;3.25;;
56927;SDS011;60850;52.502;13.426;2022-09-09T06:30:59;6.90;;;3.55;;
56927;SDS011;60850;52.502;13.426;2022-09-09T06:33:30;6.32;;;3.65;;
56927;SDS011;60850;52.502;13.426;2022-09-09T06:36:00;5.10;;;3.15;;
56927;SDS011;60850;52.502;13.426;2022-09-09T06:38:28;6.88;;;2.67;;
56927;SDS011;60850;52.502;13.426;2022-09-09T06:40:56;6.60;;;3.40;;
56927;SDS011;60850;52.502;13.426;2022-09-09T06:43:25;5.32;;;3.45;;
56927;SDS011;60850;52.502;13.426;2022-09-09T06:45:53;5.38;;;3.00;;
56927;SDS011;60850;52.502;13.426;2022-09-09T06:48:21;5.45;;;3.10;;
56927;SDS011;60850;52.502;13.426;2022-09-09T06:50:48;5.50;;;3.00;;
56927;SDS011;60850;52.502;13.426;2022-09-09T06:53:16;3.45;;;2.50;;
56927;SDS011;60850;52.502;13.426;2022-09-09T06:55:44;6.57;;;2.97;;
56927;SDS011;60850;52.502;13.426;2022-09-09T06:58:12;3.90;;;1.95;;
56927;SDS011;60850;52.502;13.426;2022-09-09T07:00:40;5.30;;;2.08;;
56927;SDS011;60850;52.502;13.426;2022-09-09T07:03:07;4.25;;;1.90;;
56927;SDS011;60850;52.502;13.426;2022-09-09T07:05:36;3.83;;;1.88;;
56927;SDS011;60850;52.502;13.426;2022-09-09T07:08:03;3.45;;;1.70;;
56927;SDS011;60850;52.502;13.426;2022-09-09T07:10:30;2.70;;;1.40;;
56927;SDS011;60850;52.502;13.426;2022-09-09T07:12:59;6.47;;;1.60;;
56927;SDS011;60850;52.502;13.426;2022-09-09T07:15:27;2.40;;;1.38;;
56927;SDS011;60850;52.502;13.426;2022-09-09T07:17:56;3.50;;;1.67;;
56927;SDS011;60850;52.502;13.426;2022-09-09T07:20:27;3.38;;;1.90;;
56927;SDS011;60850;52.502;13.426;2022-09-09T07:22:54;2.05;;;1.23;;
56927;SDS011;60850;52.502;13.426;2022-09-09T07:25:22;4.35;;;1.48;;
56927;SDS011;60850;52.502;13.426;2022-09-09T07:27:49;3.83;;;1.40;;
56927;SDS011;60850;52.502;13.426;2022-09-09T07:30:16;3.78;;;1.52;;
56927;SDS011;60850;52.502;13.426;2022-09-09T07:32:44;3.92;;;1.55;;
56927;SDS011;60850;52.502;13.426;2022-09-09T07:35:13;2.92;;;1.50;;
56927;SDS011;60850;52.502;13.426;2022-09-09T07:37:40;2.28;;;1.15;;
56927;SDS011;60850;52.502;13.426;2022-09-09T07:40:07;3.83;;;1.38;;
56927;SDS011;60850;52.502;13.426;2022-09-09T07:42:35;5.80;;;1.52;;
56927;SDS011;60850;52.502;13.426;2022-09-09T07:45:03;4.15;;;1.65;;
56927;SDS011;60850;52.502;13.426;2022-09-09T07:47:31;5.78;;;2.17;;
56927;SDS011;60850;52.502;13.426;2022-09-09T07:49:58;3.35;;;1.40;;
56927;SDS011;60850;52.502;13.426;2022-09-09T07:52:26;3.67;;;1.42;;
56927;SDS011;60850;52.502;13.426;2022-09-09T07:54:54;2.75;;;1.20;;
56927;SDS011;60850;52.502;13.426;2022-09-09T07:57:21;2.50;;;1.17;;
56927;SDS011;60850;52.502;13.426;2022-09-09T07:59:48;5.05;;;1.63;;
56927;SDS011;60850;52.502;13.426;2022-09-09T08:02:16;4.10;;;1.58;;
56927;SDS011;60850;52.502;13.426;2022-09-09T08:04:43;6.25;;;1.50;;
56927;SDS011;60850;52.502;13.426;2022-09-09T08:07:10;2.78;;;1.30;;
56927;SDS011;60850;52.502;13.426;2022-09-09T08:09:39;2.38;;;1.23;;
56927;SDS011;60850;52.502;13.426;2022-09-09T08:12:06;3.15;;;1.20;;
56927;SDS011;60850;52.502;13.426;2022-09-09T08:14:34;2.95;;;1.23;;
56927;SDS011;60850;52.502;13.426;2022-09-09T08:17:01;4.32;;;1.25;;
56927;SDS011;60850;52.502;13.426;2022-09-09T08:19:28;2.95;;;1.00;;
56927;SDS011;60850;52.502;13.426;2022-09-09T08:21:56;5.32;;;1.20;;
56927;SDS011;60850;52.502;13.426;2022-09-09T08:24:23;3.40;;;1.40;;
56927;SDS011;60850;52.502;13.426;2022-09-09T08:26:51;4.38;;;1.65;;
56927;SDS011;60850;52.502;13.426;2022-09-09T08:29:18;2.67;;;1.20;;
56927;SDS011;60850;52.502;13.426;2022-09-09T08:31:46;4.25;;;1.63;;
56927;SDS011;60850;52.502;13.426;2022-09-09T08:34:16;5.00;;;1.45;;
56927;SDS011;60850;52.502;13.426;2022-09-09T08:36:46;7.72;;;1.35;;
56927;SDS011;60850;52.502;13.426;2022-09-09T08:39:14;4.03;;;1.50;;
56927;SDS011;60850;52.502;13.426;2022-09-09T08:45:09;7.38;;;1.83;;
56927;SDS011;60850;52.502;13.426;2022-09-09T08:47:48;4.80;;;1.60;;
56927;SDS011;60850;52.502;13.426;2022-09-09T08:50:26;4.97;;;1.60;;
56927;SDS011;60850;52.502;13.426;2022-09-09T08:52:57;2.85;;;1.48;;
56927;SDS011;60850;52.502;13.426;2022-09-09T08:55:32;3.80;;;1.60;;
56927;SDS011;60850;52.502;13.426;2022-09-09T08:58:08;4.70;;;1.95;;
56927;SDS011;60850;52.502;13.426;2022-09-09T09:00:42;4.55;;;1.40;;
56927;SDS011;60850;52.502;13.426;2022-09-09T09:03:22;3.15;;;1.50;;
56927;SDS011;60850;52.502;13.426;2022-09-09T09:05:58;2.58;;;1.40;;
56927;SDS011;60850;52.502;13.426;2022-09-09T09:08:33;4.20;;;1.52;;
56927;SDS011;60850;52.502;13.426;2022-09-09T09:11:06;3.05;;;1.48;;
56927;SDS011;60850;52.502;13.426;2022-09-09T09:13:34;3.70;;;1.52;;
56927;SDS011;60850;52.502;13.426;2022-09-09T09:16:12;5.88;;;1.40;;
56927;SDS011;60850;52.502;13.426;2022-09-09T09:18:46;5.50;;;1.70;;
56927;SDS011;60850;52.502;13.426;2022-09-09T09:21:14;3.08;;;1.50;;
56927;SDS011;60850;52.502;13.426;2022-09-09T09:23:48;3.70;;;1.60;;
56927;SDS011;60850;52.502;13.426;2022-09-09T09:26:21;3.40;;;1.45;;
56927;SDS011;60850;52.502;13.426;2022-09-09T09:28:52;4.05;;;1.55;;
56927;SDS011;60850;52.502;13.426;2022-09-09T09:31:24;2.03;;;1.13;;
56927;SDS011;60850;52.502;13.426;2022-09-09T09:33:52;5.05;;;1.70;;
56927;SDS011;60850;52.502;13.426;2022-09-09T09:36:20;7.90;;;2.17;;
56927;SDS011;60850;52.502;13.426;2022-09-09T09:38:51;15.82;;;7.68;;
56927;SDS011;60850;52.502;13.426;2022-09-09T09:41:34;3.55;;;1.40;;
56927;SDS011;60850;52.502;13.426;2022-09-09T09:44:03;4.07;;;1.55;;
56927;SDS011;60850;52.502;13.426;2022-09-09T09:46:32;4.20;;;1.48;;
56927;SDS011;60850;52.502;13.426;2022-09-09T09:48:59;3.85;;;1.40;;
56927;SDS011;60850;52.502;13.426;2022-09-09T09:51:28;6.45;;;3.33;;
56927;SDS011;60850;52.502;13.426;2022-09-09T09:54:08;6.20;;;2.40;;
56927;SDS011;60850;52.502;13.426;2022-09-09T09:56:41;4.65;;;2.80;;
56927;SDS011;60850;52.502;13.426;2022-09-09T09:59:19;4.53;;;1.40;;
56927;SDS011;60850;52.502;13.426;2022-09-09T10:01:49;2.63;;;1.10;;
56927;SDS011;60850;52.502;13.426;2022-09-09T10:04:16;4.53;;;2.13;;
56927;SDS011;60850;52.502;13.426;2022-09-09T10:06:45;5.38;;;2.35;;
56927;SDS011;60850;52.502;13.426;2022-09-09T10:09:23;5.57;;;1.98;;
56927;SDS011;60850;52.502;13.426;2022-09-09T10:11:54;5.45;;;1.50;;
56927;SDS011;60850;52.502;13.426;2022-09-09T10:14:30;3.42;;;1.58;;
56927;SDS011;60850;52.502;13.426;2022-09-09T10:17:09;3.50;;;1.60;;
56927;SDS011;60850;52.502;13.426;2022-09-09T10:19:50;5.32;;;1.98;;
56927;SDS011;60850;52.502;13.426;2022-09-09T10:22:32;6.00;;;1.48;;
56927;SDS011;60850;52.502;13.426;2022-09-09T10:25:13;5.03;;;1.95;;
56927;SDS011;60850;52.502;13.426;2022-09-09T10:27:55;6.07;;;1.80;;
56927;SDS011;60850;52.502;13.426;2022-09-09T10:30:39;4.57;;;1.25;;
56927;SDS011;60850;52.502;13.426;2022-09-09T10:33:19;4.18;;;1.50;;
56927;SDS011;60850;52.502;13.426;2022-09-09T10:35:57;5.25;;;1.40;;
56927;SDS011;60850;52.502;13.426;2022-09-09T10:38:32;5.22;;;1.70;;
56927;SDS011;60850;52.502;13.426;2022-09-09T10:41:09;5.47;;;1.30;;
56927;SDS011;60850;52.502;13.426;2022-09-09T10:43:55;2.17;;;1.13;;
56927;SDS011;60850;52.502;13.426;2022-09-09T10:46:48;5.85;;;1.30;;
56927;SDS011;60850;52.502;13.426;2022-09-09T10:49:27;5.43;;;1.40;;
56927;SDS011;60850;52.502;13.426;2022-09-09T10:52:12;4.43;;;1.23;;
56927;SDS011;60850;52.502;13.426;2022-09-09T10:54:48;3.13;;;1.02;;
56927;SDS011;60850;52.502;13.426;2022-09-09T10:57:25;5.95;;;1.30;;
56927;SDS011;60850;52.502;13.426;2022-09-09T10:59:58;5.30;;;1.90;;
56927;SDS011;60850;52.502;13.426;2022-09-09T11:02:31;5.10;;;2.58;;
56927;SDS011;60850;52.502;13.426;2022-09-09T11:05:02;4.57;;;1.70;;
56927;SDS011;60850;52.502;13.426;2022-09-09T11:07:34;6.40;;;1.70;;
56927;SDS011;60850;52.502;13.426;2022-09-09T11:10:06;6.43;;;1.92;;
56927;SDS011;60850;52.502;13.426;2022-09-09T11:12:43;3.38;;;1.50;;
56927;SDS011;60850;52.502;13.426;2022-09-09T11:15:16;2.83;;;1.58;;
56927;SDS011;60850;52.502;13.426;2022-09-09T11:17:47;8.45;;;1.52;;
56927;SDS011;60850;52.502;13.426;2022-09-09T11:20:21;1.55;;;1.13;;
56927;SDS011;60850;52.502;13.426;2022-09-09T11:22:51;4.88;;;1.10;;
56927;SDS011;60850;52.502;13.426;2022-09-09T11:25:22;5.03;;;1.10;;
56927;SDS011;60850;52.502;13.426;2022-09-09T11:27:57;5.13;;;1.30;;
56927;SDS011;60850;52.502;13.426;2022-09-09T11:30:38;2.85;;;1.15;;
56927;SDS011;60850;52.502;13.426;2022-09-09T11:36:25;3.28;;;1.30;;
56927;SDS011;60850;52.502;13.426;2022-09-09T11:39:06;4.88;;;1.70;;
56927;SDS011;60850;52.502;13.426;2022-09-09T11:41:50;2.83;;;1.17;;
56927;SDS011;60850;52.502;13.426;2022-09-09T11:44:18;3.17;;;1.23;;
56927;SDS011;60850;52.502;13.426;2022-09-09T11:46:56;5.35;;;1.77;;
56927;SDS011;60850;52.502;13.426;2022-09-09T11:49:26;4.03;;;1.20;;
56927;SDS011;60850;52.502;13.426;2022-09-09T11:51:55;4.15;;;1.23;;
56927;SDS011;60850;52.502;13.426;2022-09-09T11:54:27;4.03;;;1.40;;
56927;SDS011;60850;52.502;13.426;2022-09-09T11:59:23;1.67;;;0.93;;
56927;SDS011;60850;52.502;13.426;2022-09-09T12:01:54;3.50;;;1.52;;
56927;SDS011;60850;52.502;13.426;2022-09-09T12:04:30;1.20;;;0.88;;
56927;SDS011;60850;52.502;13.426;2022-09-09T12:07:04;5.18;;;1.30;;
56927;SDS011;60850;52.502;13.426;2022-09-09T12:09:50;3.33;;;1.00;;
56927;SDS011;60850;52.502;13.426;2022-09-09T12:12:26;1.45;;;0.93;;
56927;SDS011;60850;52.502;13.426;2022-09-09T12:15:18;2.10;;;1.00;;
56927;SDS011;60850;52.502;13.426;2022-09-09T12:17:54;3.92;;;1.00;;
56927;SDS011;60850;52.502;13.426;2022-09-09T12:20:23;2.40;;;1.00;;
56927;SDS011;60850;52.502;13.426;2022-09-09T12:25:58;6.35;;;2.42;;
56927;SDS011;60850;52.502;13.426;2022-09-09T12:28:40;4.15;;;1.63;;
56927;SDS011;60850;52.502;13.426;2022-09-09T12:31:17;2.10;;;0.98;;
56927;SDS011;60850;52.502;13.426;2022-09-09T12:33:51;3.35;;;1.00;;
56927;SDS011;60850;52.502;13.426;2022-09-09T12:36:18;2.75;;;0.80;;
56927;SDS011;60850;52.502;13.426;2022-09-09T12:38:49;2.58;;;1.10;;
56927;SDS011;60850;52.502;13.426;2022-09-09T12:41:18;4.90;;;1.10;;
56927;SDS011;60850;52.502;13.426;2022-09-09T12:43:47;4.82;;;1.70;;
56927;SDS011;60850;52.502;13.426;2022-09-09T12:46:17;4.57;;;1.35;;
56927;SDS011;60850;52.502;13.426;2022-09-09T12:48:51;6.97;;;2.70;;
56927;SDS011;60850;52.502;13.426;2022-09-09T12:51:21;4.72;;;2.20;;
56927;SDS011;60850;52.502;13.426;2022-09-09T12:53:54;3.42;;;1.67;;
56927;SDS011;60850;52.502;13.426;2022-09-09T12:56:22;5.88;;;2.10;;
56927;SDS011;60850;52.502;13.426;2022-09-09T12:58:52;8.05;;;2.35;;
56927;SDS011;60850;52.502;13.426;2022-09-09T13:01:22;6.25;;;2.33;;
56927;SDS011;60850;52.502;13.426;2022-09-09T13:03:50;7.28;;;2.00;;
56927;SDS011;60850;52.502;13.426;2022-09-09T13:06:19;2.40;;;1.40;;
56927;SDS011;60850;52.502;13.426;2022-09-09T13:08:49;5.80;;;2.17;;
56927;SDS011;60850;52.502;13.426;2022-09-09T13:11:18;5.75;;;1.48;;
56927;SDS011;60850;52.502;13.426;2022-09-09T13:13:50;4.40;;;1.42;;
56927;SDS011;60850;52.502;13.426;2022-09-09T13:16:20;5.47;;;1.30;;
56927;SDS011;60850;52.502;13.426;2022-09-09T13:18:51;3.30;;;1.33;;
56927;SDS011;60850;52.502;13.426;2022-09-09T13:21:19;3.63;;;1.95;;
56927;SDS011;60850;52.502;13.426;2022-09-09T13:23:57;4.22;;;1.55;;
56927;SDS011;60850;52.502;13.426;2022-09-09T13:26:29;3.35;;;1.40;;
56927;SDS011;60850;52.502;13.426;2022-09-09T13:29:07;3.97;;;1.20;;
56927;SDS011;60850;52.502;13.426;2022-09-09T13:31:44;3.45;;;0.68;;
56927;SDS011;60850;52.502;13.426;2022-09-09T13:34:12;2.05;;;0.95;;
56927;SDS011;60850;52.502;13.426;2022-09-09T13:36:40;2.65;;;1.08;;
56927;SDS011;60850;52.502;13.426;2022-09-09T13:39:14;2.80;;;1.25;;
56927;SDS011;60850;52.502;13.426;2022-09-09T13:41:45;3.72;;;1.25;;
56927;SDS011;60850;52.502;13.426;2022-09-09T13:44:17;4.22;;;1.30;;
56927;SDS011;60850;52.502;13.426;2022-09-09T13:46:58;4.47;;;0.90;;
56927;SDS011;60850;52.502;13.426;2022-09-09T13:49:28;2.95;;;0.90;;
56927;SDS011;60850;52.502;13.426;2022-09-09T13:52:06;2.70;;;1.27;;
56927;SDS011;60850;52.502;13.426;2022-09-09T13:54:37;5.75;;;1.25;;
56927;SDS011;60850;52.502;13.426;2022-09-09T13:57:11;2.40;;;1.33;;
56927;SDS011;60850;52.502;13.426;2022-09-09T13:59:42;5.03;;;1.55;;
56927;SDS011;60850;52.502;13.426;2022-09-09T14:02:09;2.10;;;0.68;;
56927;SDS011;60850;52.502;13.426;2022-09-09T14:04:36;2.78;;;0.77;;
56927;SDS011;60850;52.502;13.426;2022-09-09T14:07:05;2.03;;;1.02;;
56927;SDS011;60850;52.502;13.426;2022-09-09T14:09:34;3.63;;;1.17;;
56927;SDS011;60850;52.502;13.426;2022-09-09T14:12:01;4.50;;;1.63;;
56927;SDS011;60850;52.502;13.426;2022-09-09T14:14:30;4.70;;;0.98;;
56927;SDS011;60850;52.502;13.426;2022-09-09T14:16:57;3.67;;;1.92;;
56927;SDS011;60850;52.502;13.426;2022-09-09T14:19:24;7.63;;;3.65;;
56927;SDS011;60850;52.502;13.426;2022-09-09T14:21:51;6.50;;;2.13;;
56927;SDS011;60850;52.502;13.426;2022-09-09T14:24:18;4.75;;;2.10;;
56927;SDS011;60850;52.502;13.426;2022-09-09T14:26:45;8.38;;;2.08;;
56927;SDS011;60850;52.502;13.426;2022-09-09T14:29:13;4.82;;;2.15;;
56927;SDS011;60850;52.502;13.426;2022-09-09T14:31:41;5.97;;;2.85;;
56927;SDS011;60850;52.502;13.426;2022-09-09T14:34:08;3.60;;;1.20;;
56927;SDS011;60850;52.502;13.426;2022-09-09T14:36:36;4.22;;;1.48;;
56927;SDS011;60850;52.502;13.426;2022-09-09T14:39:03;2.72;;;1.10;;
56927;SDS011;60850;52.502;13.426;2022-09-09T14:41:31;4.53;;;1.80;;
56927;SDS011;60850;52.502;13.426;2022-09-09T14:43:58;3.13;;;0.63;;
56927;SDS011;60850;52.502;13.426;2022-09-09T14:46:25;1.85;;;0.85;;
56927;SDS011;60850;52.502;13.426;2022-09-09T14:48:54;4.72;;;1.80;;
56927;SDS011;60850;52.502;13.426;2022-09-09T14:51:22;2.42;;;0.80;;
56927;SDS011;60850;52.502;13.426;2022-09-09T14:53:52;4.55;;;1.13;;
56927;SDS011;60850;52.502;13.426;2022-09-09T14:56:21;5.13;;;0.90;;
56927;SDS011;60850;52.502;13.426;2022-09-09T14:58:50;2.75;;;1.50;;
56927;SDS011;60850;52.502;13.426;2022-09-09T15:01:19;4.40;;;1.25;;
56927;SDS011;60850;52.502;13.426;2022-09-09T15:03:51;3.63;;;0.80;;
56927;SDS011;60850;52.502;13.426;2022-09-09T15:06:23;4.72;;;1.33;;